sensor_id;sensor_type;location;lat;lon;timestamp;P1;durP1;ratioP1;P2;durP2;ratioP2
2888;SDS011;1453;42.708;23.282;2022-08-25T00:01:44;30.77;;;18.30;;
2888;SDS011;1453;42.708;23.282;2022-08-25T00:04:16;31.03;;;17.73;;
2888;SDS011;1453;42.708;23.282;2022-08-25T00:06:44;32.53;;;16.80;;
2888;SDS011;1453;42.708;23.282;2022-08-25T00:09:12;31.90;;;15.13;;
2888;SDS011;1453;42.708;23.282;2022-08-25T00:11:43;21.83;;;13.57;;
2888;SDS011;1453;42.708;23.282;2022-08-25T00:14:11;28.43;;;14.10;;
2888;SDS011;1453;42.708;23.282;2022-08-25T00:16:46;24.50;;;13.37;;
2888;SDS011;1453;42.708;23.282;2022-08-25T00:19:14;19.60;;;13.63;;
2888;SDS011;1453;42.708;23.282;2022-08-25T00:21:44;25.90;;;13.73;;
2888;SDS011;1453;42.708;23.282;2022-08-25T00:24:11;21.23;;;12.00;;
2888;SDS011;1453;42.708;23.282;2022-08-25T00:26:41;19.60;;;11.90;;
2888;SDS011;1453;42.708;23.282;2022-08-25T00:29:10;26.00;;;12.30;;
2888;SDS011;1453;42.708;23.282;2022-08-25T00:31:38;33.50;;;14.07;;
2888;SDS011;1453;42.708;23.282;2022-08-25T00:34:06;27.33;;;13.70;;
2888;SDS011;1453;42.708;23.282;2022-08-25T00:36:40;32.50;;;14.77;;
2888;SDS011;1453;42.708;23.282;2022-08-25T00:39:07;29.73;;;12.60;;
2888;SDS011;1453;42.708;23.282;2022-08-25T00:41:34;20.20;;;13.83;;
2888;SDS011;1453;42.708;23.282;2022-08-25T00:44:03;25.37;;;13.70;;
2888;SDS011;1453;42.708;23.282;2022-08-25T00:46:34;18.43;;;13.60;;
2888;SDS011;1453;42.708;23.282;2022-08-25T00:49:29;23.23;;;12.83;;
2888;SDS011;1453;42.708;23.282;2022-08-25T00:52:08;24.10;;;13.30;;
2888;SDS011;1453;42.708;23.282;2022-08-25T00:57:17;22.90;;;14.77;;
2888;SDS011;1453;42.708;23.282;2022-08-25T00:59:49;34.10;;;15.47;;
2888;SDS011;1453;42.708;23.282;2022-08-25T01:02:15;24.30;;;14.07;;
2888;SDS011;1453;42.708;23.282;2022-08-25T01:04:42;33.40;;;15.67;;
2888;SDS011;1453;42.708;23.282;2022-08-25T01:07:10;29.07;;;12.63;;
2888;SDS011;1453;42.708;23.282;2022-08-25T01:09:36;26.77;;;12.87;;
2888;SDS011;1453;42.708;23.282;2022-08-25T01:12:02;21.03;;;13.63;;
2888;SDS011;1453;42.708;23.282;2022-08-25T01:14:30;25.73;;;12.90;;
2888;SDS011;1453;42.708;23.282;2022-08-25T01:16:58;24.43;;;12.67;;
2888;SDS011;1453;42.708;23.282;2022-08-25T01:19:25;31.33;;;17.20;;
2888;SDS011;1453;42.708;23.282;2022-08-25T01:21:53;24.67;;;12.77;;
2888;SDS011;1453;42.708;23.282;2022-08-25T01:27:07;20.87;;;11.20;;
2888;SDS011;1453;42.708;23.282;2022-08-25T01:29:34;22.47;;;12.20;;
2888;SDS011;1453;42.708;23.282;2022-08-25T01:32:03;22.20;;;11.50;;
2888;SDS011;1453;42.708;23.282;2022-08-25T01:34:33;25.87;;;11.20;;
2888;SDS011;1453;42.708;23.282;2022-08-25T01:37:02;22.50;;;11.77;;
2888;SDS011;1453;42.708;23.282;2022-08-25T01:39:29;19.10;;;12.17;;
2888;SDS011;1453;42.708;23.282;2022-08-25T01:44:41;22.27;;;11.37;;
2888;SDS011;1453;42.708;23.282;2022-08-25T01:47:09;20.40;;;13.60;;
2888;SDS011;1453;42.708;23.282;2022-08-25T01:49:35;25.80;;;12.27;;
2888;SDS011;1453;42.708;23.282;2022-08-25T01:52:06;25.40;;;12.53;;
2888;SDS011;1453;42.708;23.282;2022-08-25T01:54:50;25.43;;;14.03;;
2888;SDS011;1453;42.708;23.282;2022-08-25T01:57:16;18.53;;;11.50;;
2888;SDS011;1453;42.708;23.282;2022-08-25T01:59:42;26.43;;;11.50;;
2888;SDS011;1453;42.708;23.282;2022-08-25T02:02:08;18.07;;;12.40;;
2888;SDS011;1453;42.708;23.282;2022-08-25T02:04:34;20.73;;;12.10;;
2888;SDS011;1453;42.708;23.282;2022-08-25T02:07:02;28.37;;;14.23;;
2888;SDS011;1453;42.708;23.282;2022-08-25T02:09:30;17.90;;;11.10;;
2888;SDS011;1453;42.708;23.282;2022-08-25T02:11:57;23.43;;;11.60;;
2888;SDS011;1453;42.708;23.282;2022-08-25T02:14:23;22.83;;;11.53;;
2888;SDS011;1453;42.708;23.282;2022-08-25T02:16:50;16.57;;;10.00;;
2888;SDS011;1453;42.708;23.282;2022-08-25T02:19:19;17.23;;;10.83;;
2888;SDS011;1453;42.708;23.282;2022-08-25T02:21:48;20.23;;;11.50;;
2888;SDS011;1453;42.708;23.282;2022-08-25T02:24:14;20.40;;;10.50;;
2888;SDS011;1453;42.708;23.282;2022-08-25T02:26:41;19.67;;;10.83;;
2888;SDS011;1453;42.708;23.282;2022-08-25T02:29:07;20.17;;;11.67;;
2888;SDS011;1453;42.708;23.282;2022-08-25T02:31:35;19.73;;;11.30;;
2888;SDS011;1453;42.708;23.282;2022-08-25T02:34:02;21.23;;;11.17;;
2888;SDS011;1453;42.708;23.282;2022-08-25T02:36:29;29.90;;;12.47;;
2888;SDS011;1453;42.708;23.282;2022-08-25T02:38:56;22.53;;;11.70;;
2888;SDS011;1453;42.708;23.282;2022-08-25T02:41:23;20.27;;;13.17;;
2888;SDS011;1453;42.708;23.282;2022-08-25T02:43:51;21.10;;;11.87;;
2888;SDS011;1453;42.708;23.282;2022-08-25T02:46:19;18.00;;;12.33;;
2888;SDS011;1453;42.708;23.282;2022-08-25T02:48:46;20.60;;;12.27;;
2888;SDS011;1453;42.708;23.282;2022-08-25T02:51:12;23.13;;;12.03;;
2888;SDS011;1453;42.708;23.282;2022-08-25T02:53:39;25.10;;;12.83;;
2888;SDS011;1453;42.708;23.282;2022-08-25T02:56:07;28.00;;;12.80;;
2888;SDS011;1453;42.708;23.282;2022-08-25T02:58:36;19.00;;;11.27;;
2888;SDS011;1453;42.708;23.282;2022-08-25T03:01:03;28.60;;;12.70;;
2888;SDS011;1453;42.708;23.282;2022-08-25T03:03:31;23.37;;;11.63;;
2888;SDS011;1453;42.708;23.282;2022-08-25T03:05:58;19.10;;;12.17;;
2888;SDS011;1453;42.708;23.282;2022-08-25T03:08:24;21.53;;;12.27;;
2888;SDS011;1453;42.708;23.282;2022-08-25T03:10:50;27.47;;;13.10;;
2888;SDS011;1453;42.708;23.282;2022-08-25T03:13:16;21.53;;;12.73;;
2888;SDS011;1453;42.708;23.282;2022-08-25T03:15:43;20.00;;;11.83;;
2888;SDS011;1453;42.708;23.282;2022-08-25T03:18:09;16.03;;;11.70;;
2888;SDS011;1453;42.708;23.282;2022-08-25T03:20:36;17.30;;;11.57;;
2888;SDS011;1453;42.708;23.282;2022-08-25T03:23:04;22.63;;;13.10;;
2888;SDS011;1453;42.708;23.282;2022-08-25T03:25:31;22.07;;;13.73;;
2888;SDS011;1453;42.708;23.282;2022-08-25T03:28:15;21.20;;;12.53;;
2888;SDS011;1453;42.708;23.282;2022-08-25T03:30:41;18.63;;;12.03;;
2888;SDS011;1453;42.708;23.282;2022-08-25T03:33:08;20.43;;;12.90;;
2888;SDS011;1453;42.708;23.282;2022-08-25T03:35:35;23.60;;;12.43;;
2888;SDS011;1453;42.708;23.282;2022-08-25T03:38:02;21.10;;;13.43;;
2888;SDS011;1453;42.708;23.282;2022-08-25T03:40:28;22.10;;;11.70;;
2888;SDS011;1453;42.708;23.282;2022-08-25T03:42:54;20.87;;;12.67;;
2888;SDS011;1453;42.708;23.282;2022-08-25T03:45:21;19.47;;;11.63;;
2888;SDS011;1453;42.708;23.282;2022-08-25T03:47:49;21.53;;;12.20;;
2888;SDS011;1453;42.708;23.282;2022-08-25T03:50:16;23.53;;;11.90;;
2888;SDS011;1453;42.708;23.282;2022-08-25T03:52:44;27.43;;;13.90;;
2888;SDS011;1453;42.708;23.282;2022-08-25T03:55:14;20.20;;;12.13;;
2888;SDS011;1453;42.708;23.282;2022-08-25T03:57:40;21.57;;;11.90;;
2888;SDS011;1453;42.708;23.282;2022-08-25T04:00:07;27.80;;;12.43;;
2888;SDS011;1453;42.708;23.282;2022-08-25T04:02:36;24.50;;;12.90;;
2888;SDS011;1453;42.708;23.282;2022-08-25T04:05:02;21.90;;;12.93;;
2888;SDS011;1453;42.708;23.282;2022-08-25T04:07:28;20.00;;;13.53;;
2888;SDS011;1453;42.708;23.282;2022-08-25T04:09:54;16.40;;;12.70;;
2888;SDS011;1453;42.708;23.282;2022-08-25T04:12:20;22.13;;;13.00;;
2888;SDS011;1453;42.708;23.282;2022-08-25T04:14:46;20.20;;;13.43;;
2888;SDS011;1453;42.708;23.282;2022-08-25T04:17:12;22.13;;;13.90;;
2888;SDS011;1453;42.708;23.282;2022-08-25T04:19:38;26.00;;;12.80;;
2888;SDS011;1453;42.708;23.282;2022-08-25T04:22:04;25.90;;;16.13;;
2888;SDS011;1453;42.708;23.282;2022-08-25T04:24:30;20.83;;;12.27;;
2888;SDS011;1453;42.708;23.282;2022-08-25T04:26:57;27.73;;;12.40;;
2888;SDS011;1453;42.708;23.282;2022-08-25T04:29:23;19.53;;;13.33;;
2888;SDS011;1453;42.708;23.282;2022-08-25T04:31:50;27.83;;;13.40;;
2888;SDS011;1453;42.708;23.282;2022-08-25T04:34:19;27.13;;;13.83;;
2888;SDS011;1453;42.708;23.282;2022-08-25T04:36:47;23.70;;;12.67;;
2888;SDS011;1453;42.708;23.282;2022-08-25T04:39:16;20.33;;;12.90;;
2888;SDS011;1453;42.708;23.282;2022-08-25T04:41:48;21.67;;;13.10;;
2888;SDS011;1453;42.708;23.282;2022-08-25T04:44:15;23.70;;;12.87;;
2888;SDS011;1453;42.708;23.282;2022-08-25T04:46:41;23.87;;;13.43;;
2888;SDS011;1453;42.708;23.282;2022-08-25T04:49:07;23.90;;;13.33;;
2888;SDS011;1453;42.708;23.282;2022-08-25T04:51:35;28.10;;;13.90;;
2888;SDS011;1453;42.708;23.282;2022-08-25T04:54:04;24.47;;;12.63;;
2888;SDS011;1453;42.708;23.282;2022-08-25T04:56:35;19.53;;;12.43;;
2888;SDS011;1453;42.708;23.282;2022-08-25T04:59:02;21.20;;;13.50;;
2888;SDS011;1453;42.708;23.282;2022-08-25T05:01:31;26.37;;;12.57;;
2888;SDS011;1453;42.708;23.282;2022-08-25T05:03:58;21.30;;;12.37;;
2888;SDS011;1453;42.708;23.282;2022-08-25T05:06:27;20.37;;;12.07;;
2888;SDS011;1453;42.708;23.282;2022-08-25T05:08:54;23.43;;;12.90;;
2888;SDS011;1453;42.708;23.282;2022-08-25T05:11:22;20.50;;;12.67;;
2888;SDS011;1453;42.708;23.282;2022-08-25T05:13:50;23.87;;;12.50;;
2888;SDS011;1453;42.708;23.282;2022-08-25T05:16:18;21.90;;;12.30;;
2888;SDS011;1453;42.708;23.282;2022-08-25T05:18:47;19.33;;;11.33;;
2888;SDS011;1453;42.708;23.282;2022-08-25T05:21:15;19.00;;;11.93;;
2888;SDS011;1453;42.708;23.282;2022-08-25T05:23:48;20.47;;;13.37;;
2888;SDS011;1453;42.708;23.282;2022-08-25T05:26:16;20.93;;;12.80;;
2888;SDS011;1453;42.708;23.282;2022-08-25T05:28:46;19.90;;;12.83;;
2888;SDS011;1453;42.708;23.282;2022-08-25T05:31:15;23.30;;;11.87;;
2888;SDS011;1453;42.708;23.282;2022-08-25T05:33:42;25.03;;;12.37;;
2888;SDS011;1453;42.708;23.282;2022-08-25T05:36:09;25.90;;;12.30;;
2888;SDS011;1453;42.708;23.282;2022-08-25T05:38:37;18.33;;;12.27;;
2888;SDS011;1453;42.708;23.282;2022-08-25T05:41:06;21.87;;;12.10;;
2888;SDS011;1453;42.708;23.282;2022-08-25T05:43:35;14.87;;;11.03;;
2888;SDS011;1453;42.708;23.282;2022-08-25T05:46:05;23.27;;;12.20;;
2888;SDS011;1453;42.708;23.282;2022-08-25T05:48:32;17.63;;;11.23;;
2888;SDS011;1453;42.708;23.282;2022-08-25T05:50:59;22.30;;;11.70;;
2888;SDS011;1453;42.708;23.282;2022-08-25T05:53:29;19.63;;;12.20;;
2888;SDS011;1453;42.708;23.282;2022-08-25T05:55:55;13.80;;;11.67;;
2888;SDS011;1453;42.708;23.282;2022-08-25T05:58:23;23.03;;;12.37;;
2888;SDS011;1453;42.708;23.282;2022-08-25T06:00:52;20.10;;;12.83;;
2888;SDS011;1453;42.708;23.282;2022-08-25T06:03:19;21.40;;;12.20;;
2888;SDS011;1453;42.708;23.282;2022-08-25T06:05:45;18.60;;;12.53;;
2888;SDS011;1453;42.708;23.282;2022-08-25T06:08:11;20.00;;;12.27;;
2888;SDS011;1453;42.708;23.282;2022-08-25T06:10:37;17.57;;;11.20;;
2888;SDS011;1453;42.708;23.282;2022-08-25T06:13:03;26.23;;;12.20;;
2888;SDS011;1453;42.708;23.282;2022-08-25T06:15:29;18.80;;;11.50;;
2888;SDS011;1453;42.708;23.282;2022-08-25T06:17:55;23.87;;;12.07;;
2888;SDS011;1453;42.708;23.282;2022-08-25T06:20:25;17.03;;;11.70;;
2888;SDS011;1453;42.708;23.282;2022-08-25T06:22:53;19.63;;;11.50;;
2888;SDS011;1453;42.708;23.282;2022-08-25T06:25:21;13.80;;;11.83;;
2888;SDS011;1453;42.708;23.282;2022-08-25T06:27:49;21.27;;;11.50;;
2888;SDS011;1453;42.708;23.282;2022-08-25T06:30:17;26.23;;;12.23;;
2888;SDS011;1453;42.708;23.282;2022-08-25T06:32:45;22.10;;;11.87;;
2888;SDS011;1453;42.708;23.282;2022-08-25T06:35:14;19.80;;;11.43;;
2888;SDS011;1453;42.708;23.282;2022-08-25T06:37:42;23.13;;;11.70;;
2888;SDS011;1453;42.708;23.282;2022-08-25T06:40:09;20.13;;;10.70;;
2888;SDS011;1453;42.708;23.282;2022-08-25T06:42:36;18.63;;;10.70;;
2888;SDS011;1453;42.708;23.282;2022-08-25T06:45:02;12.90;;;9.63;;
2888;SDS011;1453;42.708;23.282;2022-08-25T06:47:30;20.73;;;10.60;;
2888;SDS011;1453;42.708;23.282;2022-08-25T06:49:56;21.37;;;10.60;;
2888;SDS011;1453;42.708;23.282;2022-08-25T06:52:22;20.47;;;11.33;;
2888;SDS011;1453;42.708;23.282;2022-08-25T06:54:48;17.53;;;10.27;;
2888;SDS011;1453;42.708;23.282;2022-08-25T06:57:14;16.80;;;11.17;;
2888;SDS011;1453;42.708;23.282;2022-08-25T06:59:40;17.23;;;10.47;;
2888;SDS011;1453;42.708;23.282;2022-08-25T07:02:06;22.20;;;10.17;;
2888;SDS011;1453;42.708;23.282;2022-08-25T07:04:32;17.13;;;9.67;;
2888;SDS011;1453;42.708;23.282;2022-08-25T07:07:00;17.33;;;9.70;;
2888;SDS011;1453;42.708;23.282;2022-08-25T07:09:26;19.70;;;10.67;;
2888;SDS011;1453;42.708;23.282;2022-08-25T07:11:52;18.03;;;10.53;;
2888;SDS011;1453;42.708;23.282;2022-08-25T07:14:18;14.73;;;9.80;;
2888;SDS011;1453;42.708;23.282;2022-08-25T07:16:45;19.97;;;10.43;;
2888;SDS011;1453;42.708;23.282;2022-08-25T07:19:11;17.93;;;9.50;;
2888;SDS011;1453;42.708;23.282;2022-08-25T07:21:39;15.80;;;10.10;;
2888;SDS011;1453;42.708;23.282;2022-08-25T07:24:07;16.37;;;10.17;;
2888;SDS011;1453;42.708;23.282;2022-08-25T07:26:36;15.73;;;11.20;;
2888;SDS011;1453;42.708;23.282;2022-08-25T07:29:05;17.03;;;10.33;;
2888;SDS011;1453;42.708;23.282;2022-08-25T07:31:38;21.07;;;10.63;;
2888;SDS011;1453;42.708;23.282;2022-08-25T07:34:04;21.03;;;9.90;;
2888;SDS011;1453;42.708;23.282;2022-08-25T07:36:49;17.03;;;10.80;;
2888;SDS011;1453;42.708;23.282;2022-08-25T07:39:15;23.73;;;11.10;;
2888;SDS011;1453;42.708;23.282;2022-08-25T07:41:42;18.43;;;11.10;;
2888;SDS011;1453;42.708;23.282;2022-08-25T07:44:08;18.83;;;10.80;;
2888;SDS011;1453;42.708;23.282;2022-08-25T07:46:36;19.13;;;10.93;;
2888;SDS011;1453;42.708;23.282;2022-08-25T07:49:03;23.00;;;11.47;;
2888;SDS011;1453;42.708;23.282;2022-08-25T07:51:31;17.97;;;10.53;;
2888;SDS011;1453;42.708;23.282;2022-08-25T07:53:57;25.07;;;10.97;;
2888;SDS011;1453;42.708;23.282;2022-08-25T07:56:23;16.23;;;11.60;;
2888;SDS011;1453;42.708;23.282;2022-08-25T07:58:49;22.80;;;12.20;;
2888;SDS011;1453;42.708;23.282;2022-08-25T08:01:16;20.87;;;11.17;;
2888;SDS011;1453;42.708;23.282;2022-08-25T08:03:45;20.60;;;10.13;;
2888;SDS011;1453;42.708;23.282;2022-08-25T08:06:13;43.57;;;13.53;;
2888;SDS011;1453;42.708;23.282;2022-08-25T08:08:45;21.50;;;10.47;;
2888;SDS011;1453;42.708;23.282;2022-08-25T08:11:17;15.47;;;9.07;;
2888;SDS011;1453;42.708;23.282;2022-08-25T08:13:49;16.00;;;8.90;;
2888;SDS011;1453;42.708;23.282;2022-08-25T08:16:16;19.00;;;9.53;;
2888;SDS011;1453;42.708;23.282;2022-08-25T08:18:43;15.70;;;9.53;;
2888;SDS011;1453;42.708;23.282;2022-08-25T08:21:15;16.33;;;9.73;;
2888;SDS011;1453;42.708;23.282;2022-08-25T08:23:42;19.90;;;10.13;;
2888;SDS011;1453;42.708;23.282;2022-08-25T08:26:08;14.00;;;8.77;;
2888;SDS011;1453;42.708;23.282;2022-08-25T08:28:34;20.90;;;10.07;;
2888;SDS011;1453;42.708;23.282;2022-08-25T08:31:01;16.37;;;10.10;;
2888;SDS011;1453;42.708;23.282;2022-08-25T08:33:27;19.40;;;10.27;;
2888;SDS011;1453;42.708;23.282;2022-08-25T08:36:00;19.67;;;10.33;;
2888;SDS011;1453;42.708;23.282;2022-08-25T08:38:33;16.20;;;9.33;;
2888;SDS011;1453;42.708;23.282;2022-08-25T08:55:39;23.03;;;10.73;;
2888;SDS011;1453;42.708;23.282;2022-08-25T08:58:17;33.57;;;13.00;;
2888;SDS011;1453;42.708;23.282;2022-08-25T09:00:54;20.60;;;9.80;;
2888;SDS011;1453;42.708;23.282;2022-08-25T09:06:45;19.83;;;9.10;;
2888;SDS011;1453;42.708;23.282;2022-08-25T09:09:16;20.40;;;9.57;;
2888;SDS011;1453;42.708;23.282;2022-08-25T09:18:22;25.70;;;10.47;;
2888;SDS011;1453;42.708;23.282;2022-08-25T09:29:56;29.90;;;7.47;;
2888;SDS011;1453;42.708;23.282;2022-08-25T09:32:33;16.30;;;8.27;;
2888;SDS011;1453;42.708;23.282;2022-08-25T09:35:05;33.83;;;8.23;;
2888;SDS011;1453;42.708;23.282;2022-08-25T09:37:37;23.40;;;7.93;;
2888;SDS011;1453;42.708;23.282;2022-08-25T09:40:03;23.53;;;8.80;;
2888;SDS011;1453;42.708;23.282;2022-08-25T09:42:46;30.80;;;9.30;;
2888;SDS011;1453;42.708;23.282;2022-08-25T09:45:16;31.63;;;7.87;;
2888;SDS011;1453;42.708;23.282;2022-08-25T09:48:24;23.30;;;8.00;;
2888;SDS011;1453;42.708;23.282;2022-08-25T09:50:52;27.70;;;8.70;;
2888;SDS011;1453;42.708;23.282;2022-08-25T09:53:27;28.53;;;7.50;;
2888;SDS011;1453;42.708;23.282;2022-08-25T09:55:59;32.53;;;8.77;;
2888;SDS011;1453;42.708;23.282;2022-08-25T09:58:31;31.63;;;8.73;;
2888;SDS011;1453;42.708;23.282;2022-08-25T10:01:03;24.27;;;8.63;;
2888;SDS011;1453;42.708;23.282;2022-08-25T10:03:31;23.67;;;7.60;;
2888;SDS011;1453;42.708;23.282;2022-08-25T10:06:02;25.23;;;7.80;;
2888;SDS011;1453;42.708;23.282;2022-08-25T10:11:07;19.13;;;8.03;;
2888;SDS011;1453;42.708;23.282;2022-08-25T10:16:21;23.17;;;8.77;;
2888;SDS011;1453;42.708;23.282;2022-08-25T10:21:39;31.90;;;7.90;;
2888;SDS011;1453;42.708;23.282;2022-08-25T10:24:08;19.10;;;7.07;;
2888;SDS011;1453;42.708;23.282;2022-08-25T10:32:39;37.93;;;7.10;;
2888;SDS011;1453;42.708;23.282;2022-08-25T10:41:07;20.30;;;6.60;;
2888;SDS011;1453;42.708;23.282;2022-08-25T10:49:47;25.27;;;5.80;;
2888;SDS011;1453;42.708;23.282;2022-08-25T10:52:25;22.20;;;6.97;;
2888;SDS011;1453;42.708;23.282;2022-08-25T10:55:04;40.00;;;9.10;;
2888;SDS011;1453;42.708;23.282;2022-08-25T11:00:43;21.37;;;7.10;;
2888;SDS011;1453;42.708;23.282;2022-08-25T11:06:19;23.83;;;6.97;;
2888;SDS011;1453;42.708;23.282;2022-08-25T11:08:53;23.30;;;7.10;;
2888;SDS011;1453;42.708;23.282;2022-08-25T11:11:31;24.87;;;8.40;;
2888;SDS011;1453;42.708;23.282;2022-08-25T11:16:42;18.53;;;7.20;;
2888;SDS011;1453;42.708;23.282;2022-08-25T11:22:06;22.00;;;7.83;;
2888;SDS011;1453;42.708;23.282;2022-08-25T11:30:39;14.40;;;6.83;;
2888;SDS011;1453;42.708;23.282;2022-08-25T11:33:06;18.20;;;6.80;;
2888;SDS011;1453;42.708;23.282;2022-08-25T11:35:43;19.10;;;6.90;;
2888;SDS011;1453;42.708;23.282;2022-08-25T11:50:06;26.17;;;14.33;;
2888;SDS011;1453;42.708;23.282;2022-08-25T12:01:59;23.73;;;7.63;;
2888;SDS011;1453;42.708;23.282;2022-08-25T12:09:30;12.83;;;6.43;;
2888;SDS011;1453;42.708;23.282;2022-08-25T12:12:54;25.57;;;7.30;;
2888;SDS011;1453;42.708;23.282;2022-08-25T12:15:53;20.90;;;6.47;;
2888;SDS011;1453;42.708;23.282;2022-08-25T12:26:25;14.97;;;7.70;;
2888;SDS011;1453;42.708;23.282;2022-08-25T12:29:26;14.50;;;6.23;;
2888;SDS011;1453;42.708;23.282;2022-08-25T12:32:24;11.73;;;6.40;;
2888;SDS011;1453;42.708;23.282;2022-08-25T12:38:07;15.33;;;8.90;;
2888;SDS011;1453;42.708;23.282;2022-08-25T12:59:43;10.20;;;5.77;;
2888;SDS011;1453;42.708;23.282;2022-08-25T13:10:51;24.23;;;6.70;;
2888;SDS011;1453;42.708;23.282;2022-08-25T13:16:26;18.37;;;6.73;;
2888;SDS011;1453;42.708;23.282;2022-08-25T13:18:54;15.07;;;5.97;;
2888;SDS011;1453;42.708;23.282;2022-08-25T13:23:55;17.70;;;6.30;;
2888;SDS011;1453;42.708;23.282;2022-08-25T13:26:28;26.47;;;7.47;;
2888;SDS011;1453;42.708;23.282;2022-08-25T13:29:13;12.63;;;5.53;;
2888;SDS011;1453;42.708;23.282;2022-08-25T13:34:29;24.87;;;7.97;;
2888;SDS011;1453;42.708;23.282;2022-08-25T13:37:15;19.80;;;7.17;;
2888;SDS011;1453;42.708;23.282;2022-08-25T13:42:43;15.63;;;7.00;;
2888;SDS011;1453;42.708;23.282;2022-08-25T13:45:14;17.97;;;7.40;;
2888;SDS011;1453;42.708;23.282;2022-08-25T13:47:48;24.77;;;7.23;;
2888;SDS011;1453;42.708;23.282;2022-08-25T13:52:54;22.33;;;6.90;;
2888;SDS011;1453;42.708;23.282;2022-08-25T13:58:01;25.30;;;8.50;;
2888;SDS011;1453;42.708;23.282;2022-08-25T14:00:32;22.07;;;6.53;;
2888;SDS011;1453;42.708;23.282;2022-08-25T14:03:06;16.30;;;6.50;;
2888;SDS011;1453;42.708;23.282;2022-08-25T14:05:41;20.73;;;6.53;;
2888;SDS011;1453;42.708;23.282;2022-08-25T14:08:29;16.70;;;6.20;;
2888;SDS011;1453;42.708;23.282;2022-08-25T14:16:51;14.40;;;5.97;;
2888;SDS011;1453;42.708;23.282;2022-08-25T14:19:27;18.03;;;5.90;;
2888;SDS011;1453;42.708;23.282;2022-08-25T14:21:54;21.37;;;5.73;;
2888;SDS011;1453;42.708;23.282;2022-08-25T14:24:26;21.07;;;7.83;;
2888;SDS011;1453;42.708;23.282;2022-08-25T14:26:57;19.03;;;8.13;;
2888;SDS011;1453;42.708;23.282;2022-08-25T14:29:23;19.00;;;6.53;;
2888;SDS011;1453;42.708;23.282;2022-08-25T14:31:50;10.13;;;5.70;;
2888;SDS011;1453;42.708;23.282;2022-08-25T14:34:27;18.77;;;6.60;;
2888;SDS011;1453;42.708;23.282;2022-08-25T14:37:10;18.30;;;7.33;;
2888;SDS011;1453;42.708;23.282;2022-08-25T14:39:41;20.00;;;6.10;;
2888;SDS011;1453;42.708;23.282;2022-08-25T14:42:08;24.43;;;7.17;;
2888;SDS011;1453;42.708;23.282;2022-08-25T14:44:35;21.47;;;7.70;;
2888;SDS011;1453;42.708;23.282;2022-08-25T14:47:01;20.67;;;6.33;;
2888;SDS011;1453;42.708;23.282;2022-08-25T14:49:28;10.83;;;6.17;;
2888;SDS011;1453;42.708;23.282;2022-08-25T14:52:08;16.53;;;6.10;;
2888;SDS011;1453;42.708;23.282;2022-08-25T14:54:42;20.83;;;7.70;;
2888;SDS011;1453;42.708;23.282;2022-08-25T14:57:08;20.00;;;6.37;;
2888;SDS011;1453;42.708;23.282;2022-08-25T14:59:34;27.57;;;10.40;;
2888;SDS011;1453;42.708;23.282;2022-08-25T15:02:00;20.07;;;9.40;;
2888;SDS011;1453;42.708;23.282;2022-08-25T15:04:26;26.53;;;8.20;;
2888;SDS011;1453;42.708;23.282;2022-08-25T15:06:55;20.63;;;6.20;;
2888;SDS011;1453;42.708;23.282;2022-08-25T15:09:24;17.60;;;7.83;;
2888;SDS011;1453;42.708;23.282;2022-08-25T15:11:50;14.37;;;7.50;;
2888;SDS011;1453;42.708;23.282;2022-08-25T15:14:21;25.10;;;7.20;;
2888;SDS011;1453;42.708;23.282;2022-08-25T15:16:52;17.37;;;6.90;;
2888;SDS011;1453;42.708;23.282;2022-08-25T15:19:21;17.20;;;7.33;;
2888;SDS011;1453;42.708;23.282;2022-08-25T15:21:50;18.23;;;6.40;;
2888;SDS011;1453;42.708;23.282;2022-08-25T15:24:17;19.37;;;6.30;;
2888;SDS011;1453;42.708;23.282;2022-08-25T15:26:49;19.67;;;6.80;;
2888;SDS011;1453;42.708;23.282;2022-08-25T15:29:21;18.80;;;6.20;;
2888;SDS011;1453;42.708;23.282;2022-08-25T15:31:49;23.93;;;7.00;;
2888;SDS011;1453;42.708;23.282;2022-08-25T15:34:15;23.53;;;6.27;;
2888;SDS011;1453;42.708;23.282;2022-08-25T15:36:41;18.73;;;7.80;;
2888;SDS011;1453;42.708;23.282;2022-08-25T15:39:07;30.03;;;7.60;;
2888;SDS011;1453;42.708;23.282;2022-08-25T15:41:34;18.70;;;8.70;;
2888;SDS011;1453;42.708;23.282;2022-08-25T15:44:01;16.03;;;8.40;;
2888;SDS011;1453;42.708;23.282;2022-08-25T15:46:32;19.90;;;9.80;;
2888;SDS011;1453;42.708;23.282;2022-08-25T15:48:59;16.20;;;7.50;;
2888;SDS011;1453;42.708;23.282;2022-08-25T15:51:27;29.50;;;8.30;;
2888;SDS011;1453;42.708;23.282;2022-08-25T15:53:53;18.20;;;9.50;;
2888;SDS011;1453;42.708;23.282;2022-08-25T15:56:20;14.17;;;6.33;;
2888;SDS011;1453;42.708;23.282;2022-08-25T15:58:47;27.17;;;8.13;;
2888;SDS011;1453;42.708;23.282;2022-08-25T16:01:17;13.83;;;6.47;;
2888;SDS011;1453;42.708;23.282;2022-08-25T16:03:49;20.33;;;6.53;;
2888;SDS011;1453;42.708;23.282;2022-08-25T16:06:16;24.97;;;8.10;;
2888;SDS011;1453;42.708;23.282;2022-08-25T16:08:42;17.63;;;6.00;;
2888;SDS011;1453;42.708;23.282;2022-08-25T16:11:18;17.43;;;6.23;;
2888;SDS011;1453;42.708;23.282;2022-08-25T16:13:50;15.73;;;6.00;;
2888;SDS011;1453;42.708;23.282;2022-08-25T16:16:17;23.57;;;7.03;;
2888;SDS011;1453;42.708;23.282;2022-08-25T16:18:46;16.63;;;7.47;;
2888;SDS011;1453;42.708;23.282;2022-08-25T16:21:14;16.90;;;6.63;;
2888;SDS011;1453;42.708;23.282;2022-08-25T16:23:43;20.17;;;8.47;;
2888;SDS011;1453;42.708;23.282;2022-08-25T16:26:10;20.37;;;7.27;;
2888;SDS011;1453;42.708;23.282;2022-08-25T16:28:37;21.90;;;7.83;;
2888;SDS011;1453;42.708;23.282;2022-08-25T16:31:05;28.10;;;8.50;;
2888;SDS011;1453;42.708;23.282;2022-08-25T16:33:34;23.33;;;8.23;;
2888;SDS011;1453;42.708;23.282;2022-08-25T16:36:06;16.20;;;7.50;;
2888;SDS011;1453;42.708;23.282;2022-08-25T16:38:45;21.30;;;8.60;;
2888;SDS011;1453;42.708;23.282;2022-08-25T16:41:14;17.40;;;7.93;;
2888;SDS011;1453;42.708;23.282;2022-08-25T16:43:46;26.83;;;12.70;;
2888;SDS011;1453;42.708;23.282;2022-08-25T16:46:15;21.53;;;11.47;;
2888;SDS011;1453;42.708;23.282;2022-08-25T16:48:44;20.30;;;10.30;;
2888;SDS011;1453;42.708;23.282;2022-08-25T16:51:11;23.03;;;9.60;;
2888;SDS011;1453;42.708;23.282;2022-08-25T16:53:40;30.63;;;11.27;;
2888;SDS011;1453;42.708;23.282;2022-08-25T16:56:25;21.97;;;8.90;;
2888;SDS011;1453;42.708;23.282;2022-08-25T16:58:58;17.30;;;8.00;;
2888;SDS011;1453;42.708;23.282;2022-08-25T17:01:26;19.90;;;8.10;;
2888;SDS011;1453;42.708;23.282;2022-08-25T17:03:54;19.40;;;10.47;;
2888;SDS011;1453;42.708;23.282;2022-08-25T17:06:22;20.83;;;9.70;;
2888;SDS011;1453;42.708;23.282;2022-08-25T17:08:50;17.03;;;7.83;;
2888;SDS011;1453;42.708;23.282;2022-08-25T17:11:20;20.73;;;6.80;;
2888;SDS011;1453;42.708;23.282;2022-08-25T17:13:53;20.33;;;7.80;;
2888;SDS011;1453;42.708;23.282;2022-08-25T17:16:24;16.80;;;6.90;;
2888;SDS011;1453;42.708;23.282;2022-08-25T17:18:54;16.70;;;8.07;;
2888;SDS011;1453;42.708;23.282;2022-08-25T17:21:22;20.17;;;9.23;;
2888;SDS011;1453;42.708;23.282;2022-08-25T17:23:52;20.30;;;9.23;;
2888;SDS011;1453;42.708;23.282;2022-08-25T17:26:21;19.00;;;8.87;;
2888;SDS011;1453;42.708;23.282;2022-08-25T17:28:49;29.77;;;18.27;;
2888;SDS011;1453;42.708;23.282;2022-08-25T17:31:16;18.60;;;9.17;;
2888;SDS011;1453;42.708;23.282;2022-08-25T17:33:42;25.23;;;9.77;;
2888;SDS011;1453;42.708;23.282;2022-08-25T17:36:08;24.20;;;8.13;;
2888;SDS011;1453;42.708;23.282;2022-08-25T17:38:35;27.67;;;11.90;;
2888;SDS011;1453;42.708;23.282;2022-08-25T17:41:04;14.93;;;8.70;;
2888;SDS011;1453;42.708;23.282;2022-08-25T17:43:33;21.87;;;12.97;;
2888;SDS011;1453;42.708;23.282;2022-08-25T17:46:02;41.30;;;15.30;;
2888;SDS011;1453;42.708;23.282;2022-08-25T17:48:28;19.03;;;10.47;;